Time;durP1;ratioP1;P1;durP2;ratioP2;P2;SDS_P1;SDS_P2;PMS_P1;PMS_P2;Temp;Humidity;BMP_temperature;BMP_pressure;BME280_temperature;BME280_humidity;BME280_pressure;Samples;Min_cycle;Max_cycle;Signal;HPM_P1;HPM_P2
2022/05/01 00:01:13;;;;;;;5.68;3.63;;;;;;;20.64;47.89;101111.56;4994013;28;20045;-72
2022/05/01 00:03:42;;;;;;;4.85;3.67;;;;;;;20.65;47.93;101110.59;4995250;28;20051;-72
2022/05/01 00:06:10;;;;;;;5.75;3.42;;;;;;;20.65;48.06;101105.19;4995668;28;20044;-72
2022/05/01 00:08:41;;;;;;;5.07;3.50;;;;;;;20.65;47.87;101102.50;4995049;28;20057;-72
2022/05/01 00:11:09;;;;;;;6.13;4.40;;;;;;;20.65;47.91;101102.50;4995661;28;20054;-71
2022/05/01 00:13:43;;;;;;;6.78;4.07;;;;;;;20.65;48.23;101096.28;4995569;28;20502;-71
2022/05/01 00:16:11;;;;;;;6.05;3.97;;;;;;;20.64;47.95;101095.44;4993588;28;20054;-71
2022/05/01 00:18:40;;;;;;;4.45;3.47;;;;;;;20.65;47.93;101093.59;5010198;28;20057;-71
2022/05/01 00:21:08;;;;;;;8.48;3.85;;;;;;;20.65;47.87;101090.91;4995201;28;20057;-71
2022/05/01 00:23:35;;;;;;;4.78;3.80;;;;;;;20.65;47.97;101094.44;4994726;28;20081;-71
2022/05/01 00:26:06;;;;;;;4.70;3.70;;;;;;;20.64;47.94;101083.81;4994739;28;20046;-71
2022/05/01 00:28:38;;;;;;;4.50;3.78;;;;;;;20.64;48.04;101092.75;4995392;28;20050;-71
2022/05/01 00:31:07;;;;;;;3.97;3.58;;;;;;;20.64;47.80;101089.22;4994574;28;20380;-71
2022/05/01 00:36:25;;;;;;;5.13;3.63;;;;;;;20.63;47.94;101088.38;4993633;28;20065;-71
2022/05/01 00:39:02;;;;;;;5.07;3.58;;;;;;;20.63;47.84;101091.06;4994622;28;20051;-71
2022/05/01 00:41:31;;;;;;;5.00;4.20;;;;;;;20.63;47.85;101091.06;4994509;28;20410;-71
2022/05/01 00:44:00;;;;;;;4.53;3.50;;;;;;;20.63;47.84;101091.06;4994846;28;20161;-71
2022/05/01 00:46:28;;;;;;;5.05;3.75;;;;;;;20.64;47.94;101094.59;4994516;28;20043;-71
2022/05/01 00:48:56;;;;;;;4.38;3.33;;;;;;;20.63;48.06;101095.59;4994383;28;20046;-71
2022/05/01 00:51:24;;;;;;;3.60;3.30;;;;;;;20.62;47.85;101092.03;4994840;28;20054;-71
2022/05/01 00:53:52;;;;;;;4.93;3.47;;;;;;;20.62;47.87;101086.66;4993255;28;20058;-71
2022/05/01 00:56:20;;;;;;;4.15;3.75;;;;;;;20.62;48.08;101089.34;4993893;28;20053;-71
2022/05/01 00:58:48;;;;;;;4.78;3.65;;;;;;;20.62;48.04;101085.78;4994278;28;20046;-71
2022/05/01 01:01:17;;;;;;;4.03;3.35;;;;;;;20.61;48.17;101081.41;4992470;28;20061;-71
2022/05/01 01:03:45;;;;;;;4.28;3.38;;;;;;;20.62;48.00;101080.41;4992687;28;20065;-71
2022/05/01 01:06:12;;;;;;;4.85;3.63;;;;;;;20.62;47.92;101080.41;4995203;28;20050;-71
2022/05/01 01:08:40;;;;;;;4.63;4.10;;;;;;;20.62;47.98;101075.03;4994322;28;20095;-71
2022/05/01 01:11:07;;;;;;;4.70;3.33;;;;;;;20.60;47.97;101069.78;4992691;28;20076;-71
2022/05/01 01:13:35;;;;;;;5.60;4.00;;;;;;;20.61;47.98;101068.81;4994172;28;20039;-71
2022/05/01 01:16:10;;;;;;;5.40;4.03;;;;;;;20.62;47.85;101077.72;4992855;28;20073;-71
2022/05/01 01:18:40;;;;;;;4.18;3.60;;;;;;;20.61;47.97;101066.09;4993906;28;20045;-71
2022/05/01 01:21:12;;;;;;;6.03;4.38;;;;;;;20.61;47.71;101066.09;4994280;28;20050;-71
2022/05/01 01:23:40;;;;;;;6.15;3.70;;;;;;;20.60;47.83;101067.09;4993926;28;20054;-71
2022/05/01 01:26:11;;;;;;;4.57;3.80;;;;;;;20.61;47.98;101068.81;4994244;28;20054;-71
2022/05/01 01:28:40;;;;;;;4.55;3.70;;;;;;;20.60;47.79;101072.47;4993560;28;20058;-71
2022/05/01 01:34:11;;;;;;;4.82;3.85;;;;;;;20.60;47.93;101067.09;4994133;28;20487;-70
2022/05/01 01:36:40;;;;;;;4.63;3.83;;;;;;;20.61;47.82;101062.56;4994281;28;20046;-71
2022/05/01 01:39:08;;;;;;;5.43;4.10;;;;;;;20.61;47.79;101058.03;4992346;28;20077;-71
2022/05/01 01:41:38;;;;;;;4.63;4.00;;;;;;;20.61;47.74;101059.88;4993867;28;20069;-71
2022/05/01 01:44:06;;;;;;;5.03;4.03;;;;;;;20.60;47.86;101055.50;4992658;28;20054;-71
2022/05/01 01:46:33;;;;;;;4.15;3.75;;;;;;;20.60;47.84;101047.44;4993491;28;20379;-71
2022/05/01 01:49:01;;;;;;;5.18;4.10;;;;;;;20.60;47.80;101053.66;4993348;28;20049;-71
2022/05/01 01:51:28;;;;;;;4.88;3.60;;;;;;;20.60;47.49;101052.81;4993438;28;20045;-71
2022/05/01 01:53:56;;;;;;;6.93;3.95;;;;;;;20.60;47.72;101056.34;4992421;28;20066;-71
2022/05/01 01:56:23;;;;;;;4.63;3.92;;;;;;;20.61;47.78;101054.50;4993165;28;20042;-71
2022/05/01 01:58:50;;;;;;;4.43;3.50;;;;;;;20.61;47.85;101049.97;4993683;28;20046;-71
2022/05/01 02:01:18;;;;;;;5.50;3.67;;;;;;;20.60;48.01;101056.34;4992079;28;20422;-71
2022/05/01 02:03:45;;;;;;;5.00;3.70;;;;;;;20.59;47.90;101057.34;4992328;28;20042;-71
2022/05/01 02:06:14;;;;;;;4.45;4.00;;;;;;;20.60;47.80;101060.88;4993556;28;20383;-71
2022/05/01 02:08:42;;;;;;;4.80;3.90;;;;;;;20.60;47.78;101044.72;5008191;28;20053;-72
2022/05/01 02:11:10;;;;;;;5.95;4.00;;;;;;;20.60;48.01;101058.19;4993333;28;20038;-71
2022/05/01 02:13:38;;;;;;;5.05;3.88;;;;;;;20.58;48.04;101055.66;4995715;28;20050;-71
2022/05/01 02:16:06;;;;;;;5.78;3.63;;;;;;;20.59;47.93;101053.81;4997323;28;20483;-71
2022/05/01 02:18:33;;;;;;;4.43;4.03;;;;;;;20.59;47.99;101048.41;4997836;28;20050;-71
2022/05/01 02:23:46;;;;;;;4.95;3.55;;;;;;;20.58;47.95;101052.94;4997406;28;20061;-71
2022/05/01 02:26:14;;;;;;;4.47;4.07;;;;;;;20.57;47.86;101051.22;4996829;28;20045;-72
2022/05/01 02:28:41;;;;;;;4.53;4.07;;;;;;;20.58;47.83;101047.56;4997122;28;20046;-71
2022/05/01 02:31:09;;;;;;;4.88;4.13;;;;;;;20.58;48.04;101044.88;4996797;28;20049;-71
2022/05/01 02:33:37;;;;;;;3.88;3.47;;;;;;;20.58;47.92;101052.94;4997447;28;20046;-71
2022/05/01 02:36:07;;;;;;;4.65;3.58;;;;;;;20.58;48.00;101044.00;4997335;28;20049;-71
2022/05/01 02:38:36;;;;;;;6.22;4.22;;;;;;;20.57;47.95;101042.31;4997198;28;20054;-71
2022/05/01 02:41:03;;;;;;;6.85;4.18;;;;;;;20.57;47.89;101053.91;4996771;28;20047;-71
2022/05/01 02:43:31;;;;;;;4.30;3.38;;;;;;;20.57;47.95;101050.38;4996720;28;20057;-71
2022/05/01 02:45:58;;;;;;;4.82;4.18;;;;;;;20.56;48.13;101044.16;4997043;28;20397;-71
2022/05/01 02:48:25;;;;;;;4.18;3.30;;;;;;;20.56;47.96;101054.91;4996612;28;20050;-71
2022/05/01 02:50:53;;;;;;;4.55;3.70;;;;;;;20.56;48.12;101062.13;4996625;28;20100;-71
2022/05/01 02:53:20;;;;;;;5.57;3.58;;;;;;;20.55;48.16;101047.84;4996939;28;20402;-71
2022/05/01 02:55:49;;;;;;;4.45;3.85;;;;;;;20.56;47.92;101056.75;4996614;28;20046;-71
2022/05/01 02:58:16;;;;;;;6.05;3.90;;;;;;;20.56;48.15;101051.38;4996980;28;20042;-72
2022/05/01 03:00:44;;;;;;;5.22;3.92;;;;;;;20.55;48.16;101039.75;4996368;28;20049;-72
2022/05/01 03:03:12;;;;;;;4.10;3.70;;;;;;;20.55;48.04;101042.47;4986280;28;20593;-72
2022/05/01 03:05:40;;;;;;;7.32;4.10;;;;;;;20.56;48.12;101051.38;4994992;28;20057;-72
2022/05/01 03:08:07;;;;;;;3.90;3.45;;;;;;;20.55;47.93;101050.53;4996316;28;20049;-72
2022/05/01 03:10:35;;;;;;;4.60;3.85;;;;;;;20.55;48.05;101053.22;4996119;28;20047;-71
2022/05/01 03:13:02;;;;;;;4.97;3.67;;;;;;;20.56;48.04;101038.78;4996572;28;20050;-71
2022/05/01 03:15:30;;;;;;;5.05;3.97;;;;;;;20.56;48.03;101048.69;4996716;28;20375;-71
2022/05/01 03:23:29;;;;;;;4.53;3.97;;;;;;;20.55;48.08;101037.06;4994130;28;20513;-71
2022/05/01 03:25:58;;;;;;;5.47;4.05;;;;;;;20.55;48.09;101037.06;4996347;28;20390;-71
2022/05/01 03:28:25;;;;;;;4.28;3.83;;;;;;;20.54;48.13;101029.13;4994738;28;20054;-71
2022/05/01 03:30:53;;;;;;;4.47;3.58;;;;;;;20.54;48.18;101032.69;4995890;28;20574;-71
2022/05/01 03:33:21;;;;;;;4.88;4.00;;;;;;;20.54;48.12;101027.31;4996225;28;20050;-71
2022/05/01 03:35:49;;;;;;;5.20;3.80;;;;;;;20.55;47.93;101028.16;4995752;28;20157;-71
2022/05/01 03:38:17;;;;;;;4.68;4.07;;;;;;;20.54;47.96;101037.19;4995649;28;20501;-71
2022/05/01 03:40:47;;;;;;;4.63;4.10;;;;;;;20.55;48.12;101030.84;4996293;28;20046;-70
2022/05/01 03:43:16;;;;;;;4.97;3.95;;;;;;;20.54;48.02;101030.00;4995628;28;20046;-71
2022/05/01 03:45:43;;;;;;;4.65;3.42;;;;;;;20.54;48.08;101034.50;4995546;28;20043;-71
2022/05/01 03:48:11;;;;;;;5.28;4.78;;;;;;;20.54;47.88;101032.69;4995459;28;20047;-71
2022/05/01 03:50:39;;;;;;;4.47;3.72;;;;;;;20.55;48.09;101033.53;4995408;28;20039;-71
2022/05/01 03:53:07;;;;;;;7.45;4.25;;;;;;;20.54;48.20;101046.13;4995491;28;20122;-71
2022/05/01 03:55:36;;;;;;;5.75;4.00;;;;;;;20.55;48.23;101036.22;4995816;28;20046;-71
2022/05/01 03:58:04;;;;;;;5.07;4.47;;;;;;;20.55;48.08;101033.53;4994254;28;20050;-71
2022/05/01 04:00:31;;;;;;;4.10;3.70;;;;;;;20.54;48.14;101031.81;4978246;28;20051;-71
2022/05/01 04:02:58;;;;;;;4.72;3.95;;;;;;;20.54;48.16;101037.19;4995907;28;20047;-71
2022/05/01 04:05:25;;;;;;;5.25;4.50;;;;;;;20.54;47.98;101038.06;4991539;28;20038;-71
2022/05/01 04:07:53;;;;;;;4.82;4.10;;;;;;;20.53;47.97;101036.34;4993885;28;20046;-71
2022/05/01 04:10:20;;;;;;;4.88;4.15;;;;;;;20.53;47.96;101030.13;4995449;28;20053;-71
2022/05/01 04:12:48;;;;;;;4.53;3.60;;;;;;;20.52;47.86;101037.34;4995100;28;20046;-71
2022/05/01 04:15:15;;;;;;;4.45;3.67;;;;;;;20.52;47.94;101037.34;4995210;28;20054;-71
2022/05/01 04:17:43;;;;;;;4.22;3.83;;;;;;;20.54;48.06;101037.19;4995446;28;20394;-71
2022/05/01 04:20:16;;;;;;;5.45;4.55;;;;;;;20.53;48.06;101043.56;4995187;28;20474;-70
2022/05/01 04:22:48;;;;;;;5.97;4.45;;;;;;;20.52;48.10;101050.78;4994669;28;20065;-71
2022/05/01 04:25:21;;;;;;;5.10;4.13;;;;;;;20.52;48.07;101042.72;4995140;28;20406;-71
2022/05/01 04:27:51;;;;;;;4.60;4.10;;;;;;;20.52;47.90;101048.09;4994965;28;20478;-71
2022/05/01 04:30:20;;;;;;;5.00;4.15;;;;;;;20.52;47.98;101039.19;4994798;28;20061;-71
2022/05/01 04:32:49;;;;;;;5.13;4.28;;;;;;;20.52;48.07;101048.09;4994643;28;20038;-72
2022/05/01 04:35:42;;;;;;;4.70;4.18;;;;;;;20.52;48.02;101052.63;4994324;28;20053;-71
2022/05/01 04:38:15;;;;;;;4.75;4.15;;;;;;;20.52;48.10;101049.94;4994721;28;20054;-71
2022/05/01 04:40:48;;;;;;;4.50;4.10;;;;;;;20.51;47.96;101054.47;4994764;28;20046;-71
2022/05/01 04:43:20;;;;;;;4.50;3.72;;;;;;;20.51;47.99;101054.47;4995103;28;20050;-72
2022/05/01 04:45:55;;;;;;;5.20;4.35;;;;;;;20.52;48.10;101058.84;4994653;28;20502;-71
2022/05/01 04:48:24;;;;;;;5.70;3.95;;;;;;;20.51;47.92;101048.25;4994569;28;20069;-71
2022/05/01 04:50:52;;;;;;;4.82;3.80;;;;;;;20.50;48.18;101050.09;4994631;28;20073;-71
2022/05/01 04:53:21;;;;;;;4.22;3.83;;;;;;;20.50;48.04;101044.72;4993063;28;20050;-71
2022/05/01 04:55:52;;;;;;;4.70;4.18;;;;;;;20.51;48.13;101042.88;4994279;28;20042;-71
2022/05/01 04:58:20;;;;;;;4.53;3.95;;;;;;;20.51;47.95;101043.72;4994937;28;20517;-71
2022/05/01 05:00:48;;;;;;;4.25;3.85;;;;;;;20.51;48.12;101053.63;4994106;28;20046;-71
2022/05/01 05:03:16;;;;;;;4.80;4.30;;;;;;;20.50;48.13;101060.84;4993711;28;20046;-71
2022/05/01 05:05:44;;;;;;;4.53;4.00;;;;;;;20.50;48.10;101063.53;4993559;28;20047;-71
2022/05/01 05:10:57;;;;;;;4.97;4.40;;;;;;;20.50;48.16;101068.91;4993971;28;20057;-71
2022/05/01 05:13:27;;;;;;;5.32;4.38;;;;;;;20.49;48.17;101073.41;4993037;28;20442;-71
2022/05/01 05:15:59;;;;;;;5.50;4.45;;;;;;;20.50;48.04;101076.97;4993418;28;20042;-71
2022/05/01 05:18:27;;;;;;;5.07;4.40;;;;;;;20.49;48.22;101072.56;5008918;28;20057;-71
2022/05/01 05:20:55;;;;;;;4.40;4.00;;;;;;;20.49;48.24;101088.69;4993692;28;20479;-71
2022/05/01 05:23:22;;;;;;;4.65;4.00;;;;;;;20.47;48.02;101083.44;4993964;28;20054;-71
2022/05/01 05:25:50;;;;;;;6.15;4.82;;;;;;;20.49;48.13;101089.53;5008711;28;20445;-71
2022/05/01 05:28:18;;;;;;;6.00;4.45;;;;;;;20.48;48.26;101095.91;4992480;28;20049;-71
2022/05/01 05:30:48;;;;;;;5.22;4.50;;;;;;;20.48;48.14;101098.59;4993967;28;20382;-71
2022/05/01 05:33:17;;;;;;;5.43;4.43;;;;;;;20.49;48.28;101102.16;4993518;28;20051;-71
2022/05/01 05:35:45;;;;;;;5.25;3.97;;;;;;;20.48;48.30;101104.00;4993417;28;20043;-71
2022/05/01 05:38:13;;;;;;;5.55;4.28;;;;;;;20.49;48.12;101112.91;4993646;28;20050;-72
2022/05/01 05:40:41;;;;;;;5.68;4.18;;;;;;;20.48;48.14;101100.41;4992759;28;20065;-71
2022/05/01 05:43:09;;;;;;;4.95;4.28;;;;;;;20.49;48.19;101110.22;4993494;28;20046;-71
2022/05/01 05:45:37;;;;;;;4.78;4.10;;;;;;;20.48;48.09;101105.78;4993716;28;20053;-71
2022/05/01 05:48:05;;;;;;;5.20;4.32;;;;;;;20.48;48.22;101113.88;4993697;28;20046;-72
2022/05/01 05:50:32;;;;;;;3.92;3.53;;;;;;;20.48;48.17;101116.56;4977511;28;20043;-71
2022/05/01 05:53:01;;;;;;;5.45;4.47;;;;;;;20.48;48.29;101116.56;4974198;28;20058;-72
2022/05/01 05:55:33;;;;;;;5.10;4.30;;;;;;;20.48;48.05;101113.88;4974738;28;20051;-71
2022/05/01 05:58:02;;;;;;;5.97;4.50;;;;;;;20.47;48.05;101123.78;4974733;28;20055;-71
2022/05/01 06:00:29;;;;;;;6.63;4.25;;;;;;;20.48;48.26;101121.94;4973935;28;20046;-71
2022/05/01 06:02:57;;;;;;;6.43;4.55;;;;;;;20.47;48.05;101129.16;4974767;28;20510;-71
2022/05/01 06:05:24;;;;;;;4.97;4.47;;;;;;;20.47;48.18;101128.31;4976888;28;20050;-72
2022/05/01 06:07:52;;;;;;;5.32;4.57;;;;;;;20.47;48.13;101122.91;4992392;28;20062;-71
2022/05/01 06:10:19;;;;;;;5.75;4.32;;;;;;;20.47;48.04;101117.53;4993422;28;20410;-71
2022/05/01 06:12:47;;;;;;;5.55;4.40;;;;;;;20.47;48.23;101123.78;4993377;28;20486;-71
2022/05/01 06:15:19;;;;;;;4.97;4.03;;;;;;;20.46;48.43;101113.16;4993211;28;20057;-71
2022/05/01 06:17:46;;;;;;;4.80;4.25;;;;;;;20.46;48.14;101113.16;4992254;28;20046;-71
2022/05/01 06:20:14;;;;;;;4.65;4.22;;;;;;;20.47;48.11;101120.22;4993500;28;20046;-71
2022/05/01 06:22:41;;;;;;;6.00;4.88;;;;;;;20.46;48.43;101115.84;4992987;28;20058;-71
2022/05/01 06:25:09;;;;;;;5.38;4.50;;;;;;;20.46;48.21;101115.84;4992897;28;20053;-71
2022/05/01 06:27:36;;;;;;;6.00;4.85;;;;;;;20.46;48.05;101119.38;4993739;28;20046;-71
2022/05/01 06:30:04;;;;;;;5.45;4.68;;;;;;;20.46;48.08;101123.91;4993195;28;20057;-70
2022/05/01 06:32:33;;;;;;;6.07;4.60;;;;;;;20.46;48.33;101123.91;4992891;28;20043;-71
2022/05/01 06:35:00;;;;;;;5.18;4.68;;;;;;;20.46;48.28;101134.69;4992328;28;20054;-71
2022/05/01 06:37:35;;;;;;;5.15;4.65;;;;;;;20.46;48.38;101135.53;4993002;28;20422;-71
2022/05/01 06:40:03;;;;;;;4.68;4.28;;;;;;;20.46;48.32;101134.69;4993164;28;20059;-71
2022/05/01 06:42:34;;;;;;;4.93;4.28;;;;;;;20.45;48.40;101143.69;4993611;28;20387;-71
2022/05/01 06:45:04;;;;;;;5.75;4.20;;;;;;;20.46;48.42;101148.13;4993245;28;20067;-71
2022/05/01 06:47:31;;;;;;;6.05;4.47;;;;;;;20.47;48.27;101147.13;4992755;28;20046;-71
2022/05/01 06:49:59;;;;;;;5.28;4.70;;;;;;;20.46;48.63;101143.59;4993723;28;20051;-71
2022/05/01 06:52:26;;;;;;;5.15;4.28;;;;;;;20.46;48.45;101143.59;4992736;28;20418;-71
2022/05/01 06:54:53;;;;;;;5.63;5.03;;;;;;;20.47;48.42;101145.28;4992981;28;20089;-71
2022/05/01 06:57:21;;;;;;;5.97;4.60;;;;;;;20.46;48.52;101140.06;4992577;28;20046;-71
2022/05/01 06:59:49;;;;;;;6.93;4.40;;;;;;;20.47;48.49;101139.06;4995636;28;20062;-71
2022/05/01 07:02:17;;;;;;;6.32;4.28;;;;;;;20.47;48.42;101139.06;4996265;28;20042;-71
2022/05/01 07:04:44;;;;;;;4.75;4.25;;;;;;;20.46;48.39;101137.38;4996192;28;20046;-71
2022/05/01 07:07:12;;;;;;;4.53;4.07;;;;;;;20.46;48.40;101138.22;4994513;28;20152;-71
2022/05/01 07:09:39;;;;;;;5.82;4.10;;;;;;;20.48;48.25;101130.00;4996447;28;20042;-71
2022/05/01 07:12:10;;;;;;;5.68;4.43;;;;;;;20.47;48.34;101131.84;4996249;28;20049;-72
2022/05/01 07:14:38;;;;;;;8.00;5.10;;;;;;;20.46;47.92;101129.28;4996437;28;20050;-71
2022/05/01 07:17:06;;;;;;;7.40;6.53;;;;;;;20.42;47.89;101133.22;4996384;28;20406;-70
2022/05/01 07:19:33;;;;;;;6.85;5.53;;;;;;;20.39;47.57;101125.41;4996129;28;20057;-70
2022/05/01 07:22:01;;;;;;;5.85;5.20;;;;;;;20.36;47.94;101125.69;4996416;28;20046;-71
2022/05/01 07:24:28;;;;;;;6.35;5.75;;;;;;;20.33;47.66;101132.16;4995443;28;20050;-71
2022/05/01 07:26:55;;;;;;;5.85;5.25;;;;;;;20.31;47.45;101126.06;4994975;28;20046;-71
2022/05/01 07:29:23;;;;;;;5.88;5.38;;;;;;;20.28;47.39;101128.16;4996268;28;20050;-71
2022/05/01 07:31:50;;;;;;;6.65;5.72;;;;;;;20.25;47.39;101129.28;4996181;28;20046;-71
2022/05/01 07:34:17;;;;;;;6.55;5.78;;;;;;;20.22;47.47;101125.03;4996369;28;20398;-72
2022/05/01 07:36:44;;;;;;;7.95;4.97;;;;;;;20.23;47.64;101125.88;4994786;28;20050;-71
2022/05/01 07:39:12;;;;;;;6.25;5.65;;;;;;;20.22;47.67;101118.81;4996317;28;20043;-71
2022/05/01 07:41:40;;;;;;;7.97;6.18;;;;;;;20.19;47.49;101125.28;4995971;28;20490;-71
2022/05/01 07:44:11;;;;;;;6.65;5.95;;;;;;;20.17;47.81;101121.84;4995787;28;20046;-71
2022/05/01 07:46:39;;;;;;;8.70;5.45;;;;;;;20.18;47.97;101128.97;4996435;28;20046;-71
2022/05/01 07:49:08;;;;;;;6.00;5.40;;;;;;;20.16;47.63;101125.53;4994035;28;20114;-71
2022/05/01 07:51:36;;;;;;;6.20;5.60;;;;;;;20.17;48.26;101126.38;4976250;28;20054;-72
2022/05/01 07:54:04;;;;;;;8.60;6.93;;;;;;;20.11;47.78;101126.91;4976553;28;20119;-71
2022/05/01 07:56:33;;;;;;;8.02;6.75;;;;;;;20.00;47.86;101130.50;4976082;28;20055;-71
2022/05/01 07:59:00;;;;;;;8.13;6.75;;;;;;;19.93;48.26;101126.63;4975797;28;20054;-71
2022/05/01 08:01:28;;;;;;;8.52;6.43;;;;;;;19.93;48.43;101130.19;4976206;28;20054;-71
2022/05/01 08:06:42;;;;;;;7.10;5.45;;;;;;;19.94;48.39;101129.19;4976240;28;20403;-71
2022/05/01 08:09:09;;;;;;;6.80;5.75;;;;;;;19.96;48.31;101123.69;4990985;28;20054;-71
2022/05/01 08:11:36;;;;;;;6.25;5.63;;;;;;;20.00;48.37;101122.44;4994447;28;20050;-71
2022/05/01 08:14:04;;;;;;;6.45;4.70;;;;;;;20.00;48.33;101117.06;4995229;28;20514;-70
2022/05/01 08:16:31;;;;;;;7.93;4.97;;;;;;;20.03;48.51;101124.88;4996102;28;20053;-70
2022/05/01 08:21:44;;;;;;;7.05;4.90;;;;;;;20.09;48.70;101127.03;4995664;28;20121;-70
2022/05/01 08:24:12;;;;;;;6.35;4.32;;;;;;;20.11;48.43;101118.84;4995030;28;20409;-71
2022/05/01 08:26:39;;;;;;;7.03;4.38;;;;;;;20.13;48.58;101123.09;4993818;28;20406;-71
2022/05/01 08:29:07;;;;;;;7.63;5.20;;;;;;;20.15;48.49;101128.38;4994098;28;20539;-70
2022/05/01 08:31:34;;;;;;;7.82;5.22;;;;;;;20.17;48.24;101129.06;4994035;28;20058;-71
2022/05/01 08:34:03;;;;;;;6.90;5.03;;;;;;;20.18;48.37;101133.47;4995210;28;20050;-70
2022/05/01 08:36:31;;;;;;;5.43;4.70;;;;;;;20.19;48.02;101133.34;4993553;28;20046;-73
2022/05/01 08:38:58;;;;;;;17.52;6.10;;;;;;;20.22;48.07;101140.31;4993806;28;20046;-70
2022/05/01 08:41:29;;;;;;;8.40;4.80;;;;;;;20.22;47.87;101133.09;4994728;28;20049;-72
2022/05/01 08:43:57;;;;;;;7.97;4.88;;;;;;;20.24;47.88;101141.88;4994483;28;20046;-72
2022/05/01 08:46:28;;;;;;;8.50;4.80;;;;;;;20.26;47.92;101144.44;4995419;28;20050;-71
2022/05/01 08:49:06;;;;;;;8.30;4.70;;;;;;;20.27;47.90;101139.91;4993511;28;20061;-71
2022/05/01 08:51:39;;;;;;;6.32;5.03;;;;;;;20.27;47.58;101140.75;4994334;28;20053;-71
2022/05/01 08:54:12;;;;;;;11.32;5.00;;;;;;;20.29;47.75;101140.63;4994795;28;20046;-71
2022/05/01 08:56:41;;;;;;;;;;;;;;;20.30;47.46;101148.56;4994771;28;20057;-70
2022/05/01 08:59:11;;;;;;;5.85;4.28;;;;;;;20.30;47.71;101143.19;4994772;28;19921;-71
2022/05/01 09:01:40;;;;;;;7.88;4.75;;;;;;;20.31;48.28;101144.03;4994159;28;20043;-71
2022/05/01 09:04:12;;;;;;;9.27;4.70;;;;;;;20.32;48.39;101135.00;4994215;28;20049;-72
2022/05/01 09:06:45;;;;;;;4.97;3.80;;;;;;;20.32;51.40;101137.69;4994616;28;20501;-72
2022/05/01 09:09:19;;;;;;;6.25;5.00;;;;;;;20.30;51.86;101140.50;4987172;28;20046;-73
2022/05/01 09:14:36;;;;;;;6.47;4.07;;;;;;;20.30;53.59;101132.44;4987257;28;20066;-71
2022/05/01 09:17:14;;;;;;;6.45;4.60;;;;;;;20.29;54.76;101135.25;4975667;28;20054;-71
2022/05/01 09:19:48;;;;;;;6.68;4.80;;;;;;;20.26;54.71;101139.06;4974987;28;20047;-71
2022/05/01 09:22:18;;;;;;;5.28;4.00;;;;;;;20.23;55.00;101131.25;4974353;28;20047;-72
2022/05/01 09:24:52;;;;;;;8.40;4.28;;;;;;;20.21;55.51;101134.06;4974484;28;20047;-71
2022/05/01 09:27:27;;;;;;;5.55;4.35;;;;;;;20.19;56.17;101132.50;4992667;28;20042;-71
2022/05/01 09:30:12;;;;;;;6.13;4.13;;;;;;;20.17;55.52;101132.59;4994211;28;20048;-72
2022/05/01 09:32:41;;;;;;;4.82;3.65;;;;;;;20.19;56.47;101140.56;4993945;28;20391;-73
2022/05/01 09:35:35;;;;;;;5.57;3.38;;;;;;;20.19;58.11;101133.34;4992878;28;20053;-72
2022/05/01 09:38:28;;;;;;;4.60;3.10;;;;;;;20.19;58.24;101138.72;4993133;28;20057;-72
2022/05/01 09:41:01;;;;;;;7.63;3.70;;;;;;;20.21;58.54;101141.25;4993496;28;20478;-72
2022/05/01 09:43:38;;;;;;;4.72;2.97;;;;;;;20.18;58.68;101138.88;4993350;28;20049;-71
2022/05/01 09:46:29;;;;;;;4.18;3.15;;;;;;;20.19;58.93;101129.81;4993912;28;20486;-71
2022/05/01 09:49:06;;;;;;;6.25;3.50;;;;;;;20.19;59.45;101136.03;4993475;28;20050;-71
2022/05/01 09:51:35;;;;;;;5.00;3.05;;;;;;;20.19;59.41;101136.03;4992825;28;20050;-72
2022/05/01 09:54:06;;;;;;;4.65;3.45;;;;;;;20.19;59.51;101129.81;4993466;28;20509;-71
2022/05/01 09:56:51;;;;;;;4.03;3.15;;;;;;;20.19;59.71;101140.56;4992458;28;20062;-72
2022/05/01 09:59:20;;;;;;;4.07;3.13;;;;;;;20.19;60.00;101137.88;4993698;28;20050;-72
2022/05/01 10:02:05;;;;;;;5.18;3.30;;;;;;;20.18;60.09;101139.72;4993401;28;20430;-72
2022/05/01 10:04:35;;;;;;;6.40;3.08;;;;;;;20.18;60.03;101139.72;4993263;28;20046;-71
2022/05/01 10:07:04;;;;;;;4.05;3.47;;;;;;;20.19;60.01;101137.88;4993430;28;20046;-71
2022/05/01 10:09:34;;;;;;;5.07;3.40;;;;;;;20.19;60.17;101130.66;4992008;28;20050;-72
2022/05/01 10:12:07;;;;;;;4.13;3.15;;;;;;;20.18;60.36;101128.97;4992143;28;20039;-72
2022/05/01 10:14:35;;;;;;;7.35;3.42;;;;;;;20.20;60.37;101128.81;4993344;28;20054;-72
2022/05/01 10:17:04;;;;;;;4.75;2.85;;;;;;;20.18;60.17;101126.28;4993463;28;20054;-72
2022/05/01 10:19:32;;;;;;;3.70;3.03;;;;;;;20.20;60.28;101126.13;4993211;28;20054;-71
2022/05/01 10:22:00;;;;;;;3.58;2.88;;;;;;;20.19;60.46;101127.13;4993061;28;20428;-72
2022/05/01 10:24:33;;;;;;;4.85;3.35;;;;;;;20.19;60.59;101124.44;5008186;28;20069;-70
2022/05/01 10:27:15;;;;;;;4.77;2.87;;;;;;;20.19;60.56;101124.44;4993041;28;20050;-72
2022/05/01 10:33:09;;;;;;;4.30;3.08;;;;;;;20.18;60.60;101112.84;4993020;28;20050;-72
2022/05/01 10:36:06;;;;;;;3.90;3.13;;;;;;;20.20;60.13;101112.69;4997086;28;20043;-71
2022/05/01 10:38:50;;;;;;;3.85;2.70;;;;;;;20.21;60.49;101112.53;4997040;28;20375;-72
2022/05/01 10:41:18;;;;;;;6.25;3.00;;;;;;;20.18;60.15;101102.06;4997066;28;20047;-72
2022/05/01 10:43:57;;;;;;;4.45;2.78;;;;;;;20.19;60.17;101101.09;4996849;28;20069;-72
2022/05/01 10:46:24;;;;;;;5.28;2.75;;;;;;;20.20;60.31;101100.09;4997064;28;20054;-72
2022/05/01 10:48:52;;;;;;;4.18;2.80;;;;;;;20.20;60.40;101104.63;4996587;28;20057;-72
2022/05/01 10:51:31;;;;;;;5.15;3.28;;;;;;;20.20;60.08;101096.56;4996672;28;20050;-71
2022/05/01 10:54:13;;;;;;;3.45;3.10;;;;;;;20.20;60.01;101093.88;4995240;28;20038;-71
2022/05/01 10:56:48;;;;;;;3.35;3.05;;;;;;;20.20;60.02;101093.88;4997203;28;20070;-71
2022/05/01 10:59:39;;;;;;;3.80;2.95;;;;;;;20.21;59.80;101084.81;4996359;28;20050;-71
2022/05/01 11:02:30;;;;;;;3.78;3.10;;;;;;;20.20;59.90;101083.13;4996529;28;20054;-71
2022/05/01 11:04:59;;;;;;;4.20;3.03;;;;;;;20.21;59.90;101068.69;4979630;28;20410;-72
2022/05/01 11:07:28;;;;;;;3.83;2.63;;;;;;;20.20;59.82;101073.22;4960063;28;20450;-72
2022/05/01 11:10:00;;;;;;;4.93;2.85;;;;;;;20.21;59.90;101069.53;4977769;28;20046;-72
2022/05/01 11:12:30;;;;;;;4.38;2.70;;;;;;;20.21;59.76;101068.69;4993849;28;20049;-72
2022/05/01 11:14:59;;;;;;;4.30;2.70;;;;;;;20.21;59.84;101058.78;4996514;28;20111;-71
2022/05/01 11:17:39;;;;;;;4.43;2.88;;;;;;;20.19;59.32;101054.53;4996320;28;20049;-72
2022/05/01 11:20:23;;;;;;;6.32;3.25;;;;;;;20.20;59.42;101049.03;4996095;28;20042;-71
2022/05/01 11:22:51;;;;;;;3.40;2.58;;;;;;;20.21;59.19;101042.66;4995715;28;20046;-72
2022/05/01 11:25:33;;;;;;;4.47;2.88;;;;;;;20.20;59.16;101043.66;4996468;28;20050;-71
2022/05/01 11:28:00;;;;;;;3.88;2.80;;;;;;;20.22;59.39;101043.53;4995949;28;20042;-71
2022/05/01 11:30:28;;;;;;;3.85;2.90;;;;;;;20.22;59.16;101041.69;4995990;28;20053;-71
2022/05/01 11:33:09;;;;;;;3.28;2.58;;;;;;;20.20;58.75;101038.25;4996428;28;20050;-71
2022/05/01 11:35:55;;;;;;;4.07;2.92;;;;;;;20.22;59.19;101027.41;4995836;28;20057;-71
2022/05/01 11:38:24;;;;;;;3.40;2.80;;;;;;;20.22;59.17;101036.31;4996093;28;20057;-72
2022/05/01 11:41:00;;;;;;;3.70;2.40;;;;;;;20.23;59.02;101024.56;4995106;28;20050;-71
2022/05/01 11:43:29;;;;;;;3.53;2.60;;;;;;;20.22;58.78;101020.19;4996129;28;20061;-72
2022/05/01 11:45:58;;;;;;;3.60;2.60;;;;;;;20.23;58.69;101024.56;4995528;28;20493;-72
2022/05/01 11:48:25;;;;;;;4.05;2.63;;;;;;;20.24;58.90;101018.19;4995562;28;20054;-72
2022/05/01 11:50:54;;;;;;;4.03;2.70;;;;;;;20.23;58.48;101012.97;4994271;28;20073;-72
2022/05/01 11:53:26;;;;;;;4.45;2.60;;;;;;;20.24;58.63;101007.44;4995717;28;20046;-72
2022/05/01 12:04:37;;;;;;;3.17;2.50;;;;;;;20.24;58.47;100985.94;4995412;28;20046;-72
2022/05/01 12:07:09;;;;;;;3.20;2.70;;;;;;;20.24;58.13;100977.88;4995649;28;20046;-72
2022/05/01 12:09:38;;;;;;;4.45;2.83;;;;;;;20.24;58.40;100979.72;4995375;28;20054;-72
2022/05/01 12:12:09;;;;;;;4.47;2.67;;;;;;;20.24;58.26;100977.88;4994369;28;20557;-72
2022/05/01 12:14:38;;;;;;;3.38;2.83;;;;;;;20.24;58.14;100974.34;4994891;28;20045;-72